sensor_id;sensor_type;location;lat;lon;timestamp;P1;durP1;ratioP1;P2;durP2;ratioP2
12373;SDS011;6251;51.762;8.660;2023-03-01T00:09:43;12.37;;;7.83;;
12373;SDS011;6251;51.762;8.660;2023-03-01T02:01:29;12.80;;;8.33;;
12373;SDS011;6251;51.762;8.660;2023-03-01T02:11:30;13.87;;;8.13;;
12373;SDS011;6251;51.762;8.660;2023-03-01T03:53:09;13.40;;;7.30;;
12373;SDS011;6251;51.762;8.660;2023-03-01T05:04:32;9.33;;;6.20;;
12373;SDS011;6251;51.762;8.660;2023-03-01T05:14:32;10.10;;;6.90;;
12373;SDS011;6251;51.762;8.660;2023-03-01T05:24:34;11.50;;;6.93;;
12373;SDS011;6251;51.762;8.660;2023-03-01T05:34:35;10.23;;;6.50;;
12373;SDS011;6251;51.762;8.660;2023-03-01T05:44:36;8.90;;;5.97;;
12373;SDS011;6251;51.762;8.660;2023-03-01T05:54:37;12.27;;;7.22;;
12373;SDS011;6251;51.762;8.660;2023-03-01T06:04:38;13.10;;;7.13;;
12373;SDS011;6251;51.762;8.660;2023-03-01T06:14:39;11.13;;;6.53;;
12373;SDS011;6251;51.762;8.660;2023-03-01T06:24:39;13.27;;;7.67;;
12373;SDS011;6251;51.762;8.660;2023-03-01T06:34:40;26.97;;;12.50;;
12373;SDS011;6251;51.762;8.660;2023-03-01T06:44:40;25.35;;;11.95;;
12373;SDS011;6251;51.762;8.660;2023-03-01T06:54:41;24.00;;;11.27;;
12373;SDS011;6251;51.762;8.660;2023-03-01T07:15:05;23.40;;;11.87;;
12373;SDS011;6251;51.762;8.660;2023-03-01T07:25:09;21.63;;;11.13;;
12373;SDS011;6251;51.762;8.660;2023-03-01T07:35:11;19.00;;;9.83;;
12373;SDS011;6251;51.762;8.660;2023-03-01T07:45:11;19.53;;;11.53;;
12373;SDS011;6251;51.762;8.660;2023-03-01T07:55:13;19.27;;;10.67;;
12373;SDS011;6251;51.762;8.660;2023-03-01T08:05:14;13.53;;;9.07;;
12373;SDS011;6251;51.762;8.660;2023-03-01T08:15:15;12.40;;;8.70;;
12373;SDS011;6251;51.762;8.660;2023-03-01T08:25:17;13.53;;;8.77;;
12373;SDS011;6251;51.762;8.660;2023-03-01T08:35:17;15.67;;;8.57;;
12373;SDS011;6251;51.762;8.660;2023-03-01T08:45:19;13.70;;;8.27;;
12373;SDS011;6251;51.762;8.660;2023-03-01T08:55:20;13.53;;;8.30;;
12373;SDS011;6251;51.762;8.660;2023-03-01T09:05:21;13.20;;;7.90;;
12373;SDS011;6251;51.762;8.660;2023-03-01T09:15:21;13.50;;;8.47;;
12373;SDS011;6251;51.762;8.660;2023-03-01T09:25:22;12.73;;;8.30;;
12373;SDS011;6251;51.762;8.660;2023-03-01T09:35:23;12.77;;;8.40;;
12373;SDS011;6251;51.762;8.660;2023-03-01T09:45:26;14.80;;;8.03;;
12373;SDS011;6251;51.762;8.660;2023-03-01T09:55:37;11.97;;;7.70;;
12373;SDS011;6251;51.762;8.660;2023-03-01T10:16:12;10.93;;;6.70;;
12373;SDS011;6251;51.762;8.660;2023-03-01T10:36:19;7.03;;;5.23;;
12373;SDS011;6251;51.762;8.660;2023-03-01T10:46:30;9.37;;;6.10;;
12373;SDS011;6251;51.762;8.660;2023-03-01T10:56:45;8.37;;;5.20;;
12373;SDS011;6251;51.762;8.660;2023-03-01T11:06:58;6.17;;;5.07;;
12373;SDS011;6251;51.762;8.660;2023-03-01T11:17:04;7.47;;;5.63;;
12373;SDS011;6251;51.762;8.660;2023-03-01T11:27:16;8.40;;;5.53;;
12373;SDS011;6251;51.762;8.660;2023-03-01T11:37:43;7.57;;;5.70;;
12373;SDS011;6251;51.762;8.660;2023-03-01T11:48:05;6.70;;;5.10;;
12373;SDS011;6251;51.762;8.660;2023-03-01T12:08:32;6.90;;;5.80;;
12373;SDS011;6251;51.762;8.660;2023-03-01T13:21:56;6.13;;;4.80;;
12373;SDS011;6251;51.762;8.660;2023-03-01T13:31:57;5.50;;;4.47;;
12373;SDS011;6251;51.762;8.660;2023-03-01T13:41:59;5.57;;;4.20;;
12373;SDS011;6251;51.762;8.660;2023-03-01T13:52:00;4.55;;;4.15;;
12373;SDS011;6251;51.762;8.660;2023-03-01T14:02:01;5.80;;;4.00;;
12373;SDS011;6251;51.762;8.660;2023-03-01T14:32:28;4.78;;;4.12;;
12373;SDS011;6251;51.762;8.660;2023-03-01T14:42:31;7.10;;;4.87;;
12373;SDS011;6251;51.762;8.660;2023-03-01T14:52:39;6.18;;;5.12;;
12373;SDS011;6251;51.762;8.660;2023-03-01T15:02:44;7.22;;;5.85;;
12373;SDS011;6251;51.762;8.660;2023-03-01T15:12:47;6.62;;;5.30;;
12373;SDS011;6251;51.762;8.660;2023-03-01T15:22:49;6.07;;;5.47;;
12373;SDS011;6251;51.762;8.660;2023-03-01T15:33:15;7.35;;;5.78;;
12373;SDS011;6251;51.762;8.660;2023-03-01T15:43:46;8.00;;;6.03;;
12373;SDS011;6251;51.762;8.660;2023-03-01T15:53:50;9.53;;;6.17;;
12373;SDS011;6251;51.762;8.660;2023-03-01T16:03:52;7.43;;;5.77;;
12373;SDS011;6251;51.762;8.660;2023-03-01T16:13:54;9.40;;;5.47;;
12373;SDS011;6251;51.762;8.660;2023-03-01T16:23:54;10.70;;;6.30;;
12373;SDS011;6251;51.762;8.660;2023-03-01T16:33:56;7.10;;;5.50;;
12373;SDS011;6251;51.762;8.660;2023-03-01T16:43:57;15.80;;;7.10;;
12373;SDS011;6251;51.762;8.660;2023-03-01T16:53:58;8.50;;;5.07;;
12373;SDS011;6251;51.762;8.660;2023-03-01T17:03:58;7.60;;;5.23;;
12373;SDS011;6251;51.762;8.660;2023-03-01T17:14:00;7.87;;;5.70;;
12373;SDS011;6251;51.762;8.660;2023-03-01T17:24:01;5.97;;;4.80;;
12373;SDS011;6251;51.762;8.660;2023-03-01T17:34:02;7.37;;;5.23;;
12373;SDS011;6251;51.762;8.660;2023-03-01T17:44:03;6.13;;;4.13;;
12373;SDS011;6251;51.762;8.660;2023-03-01T17:54:04;6.33;;;4.37;;
12373;SDS011;6251;51.762;8.660;2023-03-01T18:04:05;8.00;;;5.07;;
12373;SDS011;6251;51.762;8.660;2023-03-01T18:14:05;7.23;;;4.93;;
12373;SDS011;6251;51.762;8.660;2023-03-01T18:24:06;8.33;;;5.47;;
12373;SDS011;6251;51.762;8.660;2023-03-01T18:34:08;10.37;;;6.53;;
12373;SDS011;6251;51.762;8.660;2023-03-01T18:44:11;9.57;;;7.10;;
12373;SDS011;6251;51.762;8.660;2023-03-01T18:54:12;12.67;;;7.17;;
12373;SDS011;6251;51.762;8.660;2023-03-01T19:04:13;8.53;;;5.67;;
12373;SDS011;6251;51.762;8.660;2023-03-01T19:14:13;8.57;;;5.17;;
12373;SDS011;6251;51.762;8.660;2023-03-01T19:24:14;12.27;;;6.00;;
12373;SDS011;6251;51.762;8.660;2023-03-01T19:34:15;8.60;;;5.50;;
12373;SDS011;6251;51.762;8.660;2023-03-01T19:44:15;9.97;;;5.83;;
12373;SDS011;6251;51.762;8.660;2023-03-01T19:54:16;9.43;;;6.27;;
12373;SDS011;6251;51.762;8.660;2023-03-01T20:04:20;10.93;;;6.90;;
12373;SDS011;6251;51.762;8.660;2023-03-01T20:14:21;12.87;;;8.07;;
12373;SDS011;6251;51.762;8.660;2023-03-01T20:24:22;13.43;;;8.30;;
12373;SDS011;6251;51.762;8.660;2023-03-01T20:34:23;13.17;;;9.27;;
12373;SDS011;6251;51.762;8.660;2023-03-01T20:44:24;21.90;;;12.30;;
12373;SDS011;6251;51.762;8.660;2023-03-01T20:54:24;14.00;;;9.03;;
12373;SDS011;6251;51.762;8.660;2023-03-01T21:04:26;12.07;;;7.67;;
12373;SDS011;6251;51.762;8.660;2023-03-01T21:14:27;9.63;;;6.63;;
12373;SDS011;6251;51.762;8.660;2023-03-01T21:24:32;10.60;;;6.68;;
12373;SDS011;6251;51.762;8.660;2023-03-01T21:34:33;8.57;;;5.73;;
12373;SDS011;6251;51.762;8.660;2023-03-01T21:44:35;10.57;;;6.53;;
12373;SDS011;6251;51.762;8.660;2023-03-01T21:54:35;8.83;;;6.60;;
